createdAt,value
2023-01-17T00:00:49.502Z,2.60
2023-01-17T00:02:54.471Z,2.61
2023-01-17T00:05:12.031Z,2.60
2023-01-17T00:07:33.405Z,2.60
2023-01-17T00:09:57.005Z,2.61
2023-01-17T00:12:05.482Z,2.59
2023-01-17T00:14:10.371Z,2.54
2023-01-17T00:16:15.289Z,2.53
2023-01-17T00:18:20.245Z,2.50
2023-01-17T00:20:40.707Z,2.51
2023-01-17T00:22:59.355Z,2.50
2023-01-17T00:25:22.926Z,2.52
2023-01-17T00:27:25.455Z,2.57
2023-01-17T00:29:27.690Z,2.55
2023-01-17T00:31:29.909Z,2.54
2023-01-17T00:33:32.766Z,2.57
2023-01-17T00:35:35.129Z,2.55
2023-01-17T00:37:37.297Z,2.58
2023-01-17T00:39:39.757Z,2.64
2023-01-17T00:41:44.496Z,2.73
2023-01-17T00:44:01.875Z,2.73
2023-01-17T00:46:20.387Z,2.74
2023-01-17T00:48:37.771Z,2.75
2023-01-17T00:50:55.160Z,2.74
2023-01-17T00:53:12.530Z,2.75
2023-01-17T00:55:30.205Z,2.77
2023-01-17T00:57:50.191Z,2.80
2023-01-17T01:00:08.064Z,2.81
2023-01-17T01:02:28.414Z,2.84
2023-01-17T01:04:46.087Z,2.80
2023-01-17T01:07:03.853Z,2.83
2023-01-17T01:09:22.906Z,2.88
2023-01-17T01:11:40.290Z,2.89
2023-01-17T01:14:00.697Z,2.87
2023-01-17T01:16:19.033Z,2.87
2023-01-17T01:18:36.487Z,2.91
2023-01-17T01:20:54.637Z,2.90
2023-01-17T01:23:12.030Z,2.92
2023-01-17T01:25:29.918Z,2.97
2023-01-17T01:27:47.305Z,2.89
2023-01-17T01:30:07.367Z,2.89
2023-01-17T01:32:24.729Z,2.86
2023-01-17T01:34:30.000Z,2.83
2023-01-17T01:36:35.298Z,2.87
2023-01-17T01:38:40.924Z,2.86
2023-01-17T01:40:49.645Z,2.85
2023-01-17T01:42:56.337Z,2.87
2023-01-17T01:45:04.445Z,2.82
2023-01-17T01:47:10.938Z,2.77
2023-01-17T01:49:21.365Z,2.81
2023-01-17T01:51:34.556Z,2.84
2023-01-17T01:53:45.462Z,2.81
2023-01-17T01:55:53.154Z,2.79
2023-01-17T01:58:02.909Z,2.82
2023-01-17T02:00:18.362Z,2.77
2023-01-17T02:02:23.337Z,2.74
2023-01-17T02:04:30.579Z,2.70
2023-01-17T02:06:40.096Z,2.74
2023-01-17T02:08:45.298Z,2.70
2023-01-17T02:10:51.228Z,2.68
2023-01-17T02:12:58.527Z,2.65
2023-01-17T02:15:04.782Z,2.66
2023-01-17T02:17:24.594Z,2.63
2023-01-17T02:20:18.806Z,2.56
2023-01-17T02:22:55.605Z,2.57
2023-01-17T02:25:31.463Z,2.61
2023-01-17T02:27:52.963Z,2.70
2023-01-17T02:30:37.849Z,2.68
2023-01-17T02:33:02.488Z,2.71
2023-01-17T02:35:16.431Z,2.70
2023-01-17T02:37:28.513Z,2.69
2023-01-17T02:39:40.251Z,2.69
2023-01-17T02:41:49.945Z,2.62
2023-01-17T02:43:56.481Z,2.59
2023-01-17T02:46:04.124Z,2.57
2023-01-17T02:48:11.402Z,2.52
2023-01-17T02:50:20.910Z,2.53
2023-01-17T02:52:44.975Z,2.50
2023-01-17T02:55:10.703Z,2.42
2023-01-17T02:57:35.580Z,2.31
2023-01-17T02:59:53.410Z,2.30
2023-01-17T03:02:15.213Z,2.26
2023-01-17T03:04:27.331Z,2.26
2023-01-17T03:06:39.515Z,2.24
2023-01-17T03:08:47.354Z,2.20
2023-01-17T03:10:53.048Z,2.17
2023-01-17T03:13:00.882Z,2.15
2023-01-17T03:15:12.174Z,2.11
2023-01-17T03:17:19.994Z,2.09
2023-01-17T03:19:24.906Z,2.10
2023-01-17T03:21:30.695Z,2.15
2023-01-17T03:23:35.613Z,2.14
2023-01-17T03:25:40.561Z,2.10
2023-01-17T03:27:45.846Z,2.10
2023-01-17T03:29:51.079Z,2.07
2023-01-17T03:31:56.027Z,2.02
2023-01-17T03:34:03.476Z,2.07
2023-01-17T03:36:10.122Z,2.07
2023-01-17T03:38:15.035Z,2.08
2023-01-17T03:40:21.100Z,2.10
2023-01-17T03:42:26.009Z,2.12
2023-01-17T03:44:31.952Z,2.06
2023-01-17T03:46:37.293Z,2.05
2023-01-17T03:48:44.407Z,2.07
2023-01-17T03:50:54.106Z,2.02
2023-01-17T03:52:59.754Z,1.97
2023-01-17T03:55:05.185Z,1.91
2023-01-17T03:57:10.259Z,1.83
2023-01-17T03:59:16.074Z,1.77
2023-01-17T04:01:21.983Z,1.75
2023-01-17T04:03:27.096Z,1.79
2023-01-17T04:05:32.541Z,1.75
2023-01-17T04:07:40.441Z,1.72
2023-01-17T04:09:45.349Z,1.80
2023-01-17T04:11:51.004Z,1.83
2023-01-17T04:13:56.497Z,1.84
2023-01-17T04:16:01.493Z,1.82
2023-01-17T04:18:08.050Z,1.84
2023-01-17T04:20:18.994Z,1.86
2023-01-17T04:22:24.291Z,1.89
2023-01-17T04:24:32.174Z,1.89
2023-01-17T04:26:37.327Z,1.88
2023-01-17T04:28:42.473Z,1.87
2023-01-17T04:30:47.899Z,1.87
2023-01-17T04:32:53.965Z,1.84
2023-01-17T04:34:58.812Z,1.83
2023-01-17T04:37:03.705Z,1.84
2023-01-17T04:39:09.936Z,1.79
2023-01-17T04:41:17.730Z,1.73
2023-01-17T04:43:23.490Z,1.77
2023-01-17T04:45:29.313Z,1.76
2023-01-17T04:47:36.021Z,1.72
2023-01-17T04:49:43.332Z,1.68
2023-01-17T04:51:50.281Z,1.63
2023-01-17T04:53:55.127Z,1.62
2023-01-17T04:56:01.062Z,1.59
2023-01-17T04:58:08.910Z,1.55
2023-01-17T05:00:15.770Z,1.43
2023-01-17T05:02:20.661Z,1.41
2023-01-17T05:04:26.164Z,1.42
2023-01-17T05:06:31.049Z,1.33
2023-01-17T05:08:35.941Z,1.38
2023-01-17T05:10:41.214Z,1.37
2023-01-17T05:12:47.784Z,1.42
2023-01-17T05:14:56.381Z,1.40
2023-01-17T05:17:03.119Z,1.35
2023-01-17T05:19:08.234Z,1.42
2023-01-17T05:21:13.088Z,1.40
2023-01-17T05:23:18.361Z,1.47
2023-01-17T05:25:23.230Z,1.49
2023-01-17T05:27:29.633Z,1.51
2023-01-17T05:29:34.906Z,1.48
2023-01-17T05:31:42.370Z,1.46
2023-01-17T05:33:47.307Z,1.39
2023-01-17T05:35:52.162Z,1.31
2023-01-17T05:37:57.328Z,1.28
2023-01-17T05:40:02.211Z,1.23
2023-01-17T05:42:07.837Z,1.22
2023-01-17T05:44:13.184Z,1.17
2023-01-17T05:46:19.380Z,1.16
2023-01-17T05:48:27.034Z,1.18
2023-01-17T05:50:35.807Z,1.16
2023-01-17T05:52:40.691Z,1.15
2023-01-17T05:54:45.726Z,1.05
2023-01-17T05:56:50.582Z,0.99
2023-01-17T05:58:55.604Z,0.88
2023-01-17T06:01:01.679Z,0.88
2023-01-17T06:03:07.048Z,0.91
2023-01-17T06:05:14.800Z,0.86
2023-01-17T06:07:20.545Z,0.80
2023-01-17T06:09:25.411Z,0.77
2023-01-17T06:11:30.554Z,0.78
2023-01-17T06:13:35.425Z,0.84
2023-01-17T06:15:42.054Z,0.83
2023-01-17T06:17:47.260Z,0.73
2023-01-17T06:19:52.146Z,0.73
2023-01-17T06:21:59.617Z,0.63
2023-01-17T06:24:04.973Z,0.54
2023-01-17T06:26:10.228Z,0.52
2023-01-17T06:28:17.649Z,0.38
2023-01-17T06:30:22.635Z,0.47
2023-01-17T06:32:27.598Z,0.57
2023-01-17T06:34:32.972Z,0.59
2023-01-17T06:36:37.812Z,0.50
2023-01-17T06:38:45.278Z,0.43
2023-01-17T06:40:50.583Z,0.44
2023-01-17T06:42:55.504Z,0.55
2023-01-17T06:45:00.351Z,0.42
2023-01-17T06:47:05.584Z,0.31
2023-01-17T06:49:11.503Z,0.24
2023-01-17T06:51:16.405Z,0.12
2023-01-17T06:53:21.343Z,0.13
2023-01-17T06:55:29.349Z,0.03
2023-01-17T06:57:34.598Z,-0.02
2023-01-17T06:59:39.476Z,-0.03
2023-01-17T07:01:44.353Z,-0.08
2023-01-17T07:03:49.272Z,-0.15
2023-01-17T07:05:56.096Z,-0.17
2023-01-17T07:08:01.066Z,-0.26
2023-01-17T07:10:06.976Z,-0.26
2023-01-17T07:12:14.444Z,-0.26
2023-01-17T07:14:19.695Z,-0.25
2023-01-17T07:16:25.407Z,-0.34
2023-01-17T07:18:30.441Z,-0.35
2023-01-17T07:20:35.842Z,-0.37
2023-01-17T07:22:40.735Z,-0.34
2023-01-17T07:24:45.995Z,-0.39
2023-01-17T07:26:52.596Z,-0.35
2023-01-17T07:29:01.211Z,-0.46
2023-01-17T07:31:10.656Z,-0.44
2023-01-17T07:33:15.765Z,-0.46
2023-01-17T07:35:20.691Z,-0.49
2023-01-17T07:37:26.390Z,-0.58
2023-01-17T07:39:31.314Z,-0.54
2023-01-17T07:41:41.397Z,-0.56
2023-01-17T07:43:46.434Z,-0.51
2023-01-17T07:45:54.260Z,-0.40
2023-01-17T07:48:00.191Z,-0.43
2023-01-17T07:50:06.496Z,-0.39
2023-01-17T07:52:12.149Z,-0.42
2023-01-17T07:54:17.457Z,-0.37
2023-01-17T07:56:22.782Z,-0.31
2023-01-17T07:58:27.929Z,-0.27
2023-01-17T08:00:33.215Z,-0.24
2023-01-17T08:02:40.666Z,-0.17
2023-01-17T08:04:45.529Z,-0.18
2023-01-17T08:06:51.728Z,-0.12
2023-01-17T08:08:59.094Z,-0.10
2023-01-17T08:11:04.072Z,-0.07
2023-01-17T08:13:08.936Z,-0.08
2023-01-17T08:15:14.781Z,-0.11
2023-01-17T08:17:21.930Z,-0.17
2023-01-17T08:19:29.375Z,-0.16
2023-01-17T08:21:34.718Z,-0.17
2023-01-17T08:23:39.600Z,-0.15
2023-01-17T08:25:44.877Z,-0.11
2023-01-17T08:27:49.788Z,-0.08
2023-01-17T08:29:54.983Z,-0.05
2023-01-17T08:31:59.911Z,-0.01
2023-01-17T08:34:04.856Z,0.06
2023-01-17T08:36:12.533Z,0.15
2023-01-17T08:38:17.563Z,0.20
2023-01-17T08:40:23.111Z,0.29
2023-01-17T08:42:28.229Z,0.35
2023-01-17T08:44:33.461Z,0.45
2023-01-17T08:46:41.163Z,0.50
2023-01-17T08:48:46.273Z,0.52
2023-01-17T08:50:51.166Z,0.51
2023-01-17T08:53:01.615Z,0.54
2023-01-17T08:55:10.113Z,0.56
2023-01-17T08:57:15.177Z,0.62
2023-01-17T08:59:20.033Z,0.64
2023-01-17T09:01:24.994Z,0.67
2023-01-17T09:03:29.959Z,0.73
2023-01-17T09:05:34.885Z,0.69
2023-01-17T09:07:40.213Z,0.70
2023-01-17T09:09:47.669Z,0.75
2023-01-17T09:11:52.525Z,0.88
2023-01-17T09:13:57.385Z,1.05
2023-01-17T09:16:02.904Z,1.15
2023-01-17T09:18:08.205Z,1.29
2023-01-17T09:20:15.051Z,1.48
2023-01-17T09:22:20.262Z,1.64
2023-01-17T09:24:25.171Z,1.77
2023-01-17T09:26:33.374Z,1.91
2023-01-17T09:28:42.841Z,1.94
2023-01-17T09:30:47.730Z,2.08
2023-01-17T09:32:56.007Z,2.15
2023-01-17T09:35:01.070Z,2.28
2023-01-17T09:37:08.041Z,2.31
2023-01-17T09:39:15.296Z,2.34
2023-01-17T09:41:27.731Z,2.42
2023-01-17T09:43:44.000Z,2.45
2023-01-17T09:45:49.007Z,2.35
2023-01-17T09:47:57.374Z,2.21
2023-01-17T09:50:12.267Z,2.13
2023-01-17T09:52:21.474Z,2.06
2023-01-17T09:54:30.124Z,2.04
2023-01-17T09:56:41.395Z,1.97
2023-01-17T09:59:18.965Z,1.99
2023-01-17T10:01:35.898Z,1.93
2023-01-17T10:04:07.927Z,1.82
2023-01-17T10:06:38.864Z,1.85
2023-01-17T10:09:08.388Z,1.76
2023-01-17T10:11:32.427Z,1.85
2023-01-17T10:13:48.271Z,1.83
2023-01-17T10:16:12.078Z,1.98
2023-01-17T10:18:59.432Z,2.23
2023-01-17T10:21:15.308Z,2.51
2023-01-17T10:23:50.008Z,2.79
2023-01-17T10:25:57.635Z,2.90
2023-01-17T10:28:07.456Z,2.78
2023-01-17T10:30:29.495Z,2.58
2023-01-17T10:32:44.942Z,2.35
2023-01-17T10:34:52.916Z,2.23
2023-01-17T10:37:06.180Z,2.29
2023-01-17T10:39:21.920Z,2.28
2023-01-17T10:41:32.417Z,2.28
2023-01-17T10:43:48.215Z,2.31
2023-01-17T10:45:58.104Z,2.31
2023-01-17T10:48:18.174Z,2.33
2023-01-17T10:50:26.395Z,2.32
2023-01-17T10:52:43.248Z,2.40
2023-01-17T10:55:04.077Z,2.28
2023-01-17T10:57:15.429Z,2.21
2023-01-17T10:59:30.277Z,2.46
2023-01-17T11:01:35.852Z,2.79
2023-01-17T11:03:45.207Z,2.98
2023-01-17T11:06:19.774Z,2.91
2023-01-17T11:08:25.633Z,2.75
2023-01-17T11:10:44.610Z,2.57
2023-01-17T11:12:50.403Z,2.47
2023-01-17T11:15:04.949Z,2.35
2023-01-17T11:17:12.296Z,2.25
2023-01-17T11:19:30.536Z,2.22
2023-01-17T11:21:36.084Z,2.13
2023-01-17T11:23:44.389Z,2.11
2023-01-17T11:25:55.580Z,2.10
2023-01-17T11:28:04.173Z,2.10
2023-01-17T11:30:19.953Z,2.14
2023-01-17T11:32:33.518Z,2.18
2023-01-17T11:34:41.009Z,2.32
2023-01-17T11:36:46.367Z,2.48
2023-01-17T11:39:02.804Z,2.51
2023-01-17T11:41:25.432Z,2.61
2023-01-17T11:43:30.758Z,2.85
2023-01-17T11:45:37.196Z,3.08
2023-01-17T11:47:42.132Z,3.15
2023-01-17T11:49:52.104Z,3.25
2023-01-17T11:51:57.043Z,3.55
2023-01-17T11:54:19.427Z,3.93
2023-01-17T11:56:36.515Z,3.90
2023-01-17T11:58:45.904Z,3.89
2023-01-17T12:00:54.921Z,4.08
2023-01-17T12:03:31.306Z,4.17
2023-01-17T12:05:58.909Z,4.31
2023-01-17T12:08:16.669Z,4.23
2023-01-17T12:10:31.581Z,4.19
2023-01-17T12:13:15.477Z,4.23
2023-01-17T12:15:36.167Z,4.04
2023-01-17T12:18:05.818Z,3.73
2023-01-17T12:20:24.501Z,3.70
2023-01-17T12:22:54.464Z,3.68
2023-01-17T12:25:27.701Z,3.60
2023-01-17T12:27:46.058Z,3.73
2023-01-17T12:30:02.466Z,3.57
2023-01-17T12:32:56.705Z,3.48
2023-01-17T12:35:11.487Z,3.43
2023-01-17T12:37:24.708Z,3.45
2023-01-17T12:39:42.417Z,3.45
2023-01-17T12:42:01.393Z,3.51
2023-01-17T12:44:06.629Z,3.53
2023-01-17T12:46:23.620Z,3.62
2023-01-17T12:48:37.796Z,3.83
2023-01-17T12:50:51.732Z,3.94
2023-01-17T12:53:06.934Z,4.13
2023-01-17T12:55:23.090Z,4.16
2023-01-17T12:57:34.842Z,4.18
2023-01-17T12:59:47.045Z,4.25
2023-01-17T13:01:58.366Z,4.22
2023-01-17T13:04:19.433Z,4.67
2023-01-17T13:06:32.754Z,5.50
2023-01-17T13:08:46.594Z,6.27
2023-01-17T13:10:59.353Z,6.68
2023-01-17T13:13:23.989Z,7.22
2023-01-17T13:15:37.947Z,7.75
2023-01-17T13:17:49.638Z,8.11
2023-01-17T13:20:02.043Z,8.61
2023-01-17T13:22:10.539Z,9.03
2023-01-17T13:24:34.609Z,8.28
2023-01-17T13:26:58.736Z,7.87
2023-01-17T13:29:17.900Z,8.05
2023-01-17T13:31:59.940Z,8.97
2023-01-17T13:34:35.179Z,9.22
2023-01-17T13:36:57.876Z,8.72
2023-01-17T13:39:34.505Z,8.84
2023-01-17T13:41:50.585Z,9.41
2023-01-17T13:44:08.176Z,9.45
2023-01-17T13:46:13.311Z,9.02
2023-01-17T13:48:30.779Z,8.49
2023-01-17T13:50:53.098Z,9.34
2023-01-17T13:52:58.049Z,9.60
2023-01-17T13:55:05.149Z,9.82
2023-01-17T13:57:41.844Z,10.15
2023-01-17T13:59:47.022Z,10.17
2023-01-17T14:01:54.531Z,9.94
2023-01-17T14:04:09.076Z,10.21
2023-01-17T14:06:36.219Z,9.98
2023-01-17T14:08:48.434Z,9.26
2023-01-17T14:10:56.408Z,9.17
2023-01-17T14:13:04.560Z,9.14
2023-01-17T14:15:23.256Z,8.39
2023-01-17T14:17:55.883Z,7.63
2023-01-17T14:20:22.592Z,7.18
2023-01-17T14:22:30.659Z,6.51
2023-01-17T14:24:35.567Z,6.15
2023-01-17T14:26:50.356Z,6.05
2023-01-17T14:29:00.364Z,5.88
2023-01-17T14:31:14.030Z,5.55
2023-01-17T14:33:26.043Z,5.31
2023-01-17T14:35:34.407Z,5.17
2023-01-17T14:37:48.601Z,4.96
2023-01-17T14:39:54.181Z,4.83
2023-01-17T14:41:59.212Z,4.97
2023-01-17T14:44:08.244Z,5.10
2023-01-17T14:46:25.295Z,5.04
2023-01-17T14:48:32.061Z,4.79
2023-01-17T14:50:41.089Z,4.55
2023-01-17T14:52:46.624Z,4.34
2023-01-17T14:54:53.658Z,4.07
2023-01-17T14:57:28.515Z,3.75
2023-01-17T14:59:36.201Z,3.62
2023-01-17T15:01:41.264Z,3.40
2023-01-17T15:03:49.382Z,3.24
2023-01-17T15:05:58.431Z,3.09
2023-01-17T15:08:04.207Z,2.92
2023-01-17T15:10:13.802Z,2.74
2023-01-17T15:12:19.750Z,2.63
2023-01-17T15:14:30.525Z,2.45
2023-01-17T15:16:41.101Z,2.25
2023-01-17T15:18:46.355Z,2.15
2023-01-17T15:20:57.440Z,1.99
2023-01-17T15:23:02.691Z,1.86
2023-01-17T15:25:10.155Z,1.65
2023-01-17T15:27:17.283Z,1.50
2023-01-17T15:29:27.880Z,1.36
2023-01-17T15:31:46.140Z,1.24
2023-01-17T15:33:57.414Z,1.10
2023-01-17T15:36:04.475Z,0.84
2023-01-17T15:38:16.778Z,0.67
2023-01-17T15:40:24.985Z,0.46
2023-01-17T15:42:33.402Z,0.32
2023-01-17T15:44:48.394Z,0.27
2023-01-17T15:46:56.873Z,0.15
2023-01-17T15:49:20.799Z,-0.08
2023-01-17T15:51:41.531Z,-0.26
2023-01-17T15:53:46.864Z,-0.35
2023-01-17T15:55:51.907Z,-0.45
2023-01-17T15:57:57.165Z,-0.62
2023-01-17T16:00:07.274Z,-0.70
2023-01-17T16:02:36.626Z,-0.79
2023-01-17T16:04:42.288Z,-0.80
2023-01-17T16:06:48.206Z,-0.93
2023-01-17T16:08:55.403Z,-1.03
2023-01-17T16:11:06.615Z,-1.04
2023-01-17T16:13:15.188Z,-1.08
2023-01-17T16:15:22.145Z,-1.16
2023-01-17T16:17:30.818Z,-1.28
2023-01-17T16:19:36.428Z,-1.24
2023-01-17T16:21:44.999Z,-1.31
2023-01-17T16:23:50.623Z,-1.34
2023-01-17T16:25:55.691Z,-1.39
2023-01-17T16:28:00.927Z,-1.32
2023-01-17T16:30:06.994Z,-1.27
2023-01-17T16:32:12.510Z,-1.43
2023-01-17T16:34:20.037Z,-1.46
2023-01-17T16:36:25.409Z,-1.60
2023-01-17T16:38:32.159Z,-1.65
2023-01-17T16:40:43.892Z,-1.66
2023-01-17T16:42:50.485Z,-1.57
2023-01-17T16:44:56.173Z,-1.63
2023-01-17T16:47:04.145Z,-1.69
2023-01-17T16:49:09.417Z,-1.69
2023-01-17T16:51:17.247Z,-1.59
2023-01-17T16:53:25.195Z,-1.66
2023-01-17T16:55:30.231Z,-1.67
2023-01-17T16:57:35.632Z,-1.71
2023-01-17T16:59:50.404Z,-1.68
2023-01-17T17:01:57.281Z,-1.84
2023-01-17T17:04:02.332Z,-1.95
2023-01-17T17:06:07.923Z,-2.00
2023-01-17T17:08:16.197Z,-1.95
2023-01-17T17:10:25.212Z,-1.98
2023-01-17T17:12:30.207Z,-1.94
2023-01-17T17:14:35.116Z,-2.00
2023-01-17T17:16:40.399Z,-1.94
2023-01-17T17:18:47.455Z,-2.05
2023-01-17T17:20:52.373Z,-2.10
2023-01-17T17:23:00.478Z,-2.17
2023-01-17T17:25:09.581Z,-2.25
2023-01-17T17:27:14.899Z,-2.29
2023-01-17T17:29:19.982Z,-2.29
2023-01-17T17:31:24.986Z,-2.26
2023-01-17T17:33:30.372Z,-2.21
2023-01-17T17:35:37.531Z,-2.12
2023-01-17T17:37:42.424Z,-2.09
2023-01-17T17:39:47.457Z,-2.18
2023-01-17T17:41:55.116Z,-2.15
2023-01-17T17:44:00.938Z,-2.10
2023-01-17T17:46:05.868Z,-2.03
2023-01-17T17:48:10.858Z,-2.10
2023-01-17T17:50:15.926Z,-2.09
2023-01-17T17:52:20.880Z,-2.12
2023-01-17T17:54:27.400Z,-2.22
2023-01-17T17:56:34.948Z,-2.17
2023-01-17T17:58:43.786Z,-2.01
2023-01-17T18:00:51.686Z,-2.12
2023-01-17T18:02:56.581Z,-1.98
2023-01-17T18:05:02.326Z,-2.04
2023-01-17T18:07:07.365Z,-2.00
2023-01-17T18:09:15.366Z,-2.15
2023-01-17T18:11:22.860Z,-2.33
2023-01-17T18:13:27.792Z,-2.23
2023-01-17T18:15:35.361Z,-2.34
2023-01-17T18:17:40.292Z,-2.36
2023-01-17T18:19:46.256Z,-2.36
2023-01-17T18:21:52.558Z,-2.51
2023-01-17T18:24:00.103Z,-2.56
2023-01-17T18:26:05.021Z,-2.41
2023-01-17T18:28:09.922Z,-2.34
2023-01-17T18:30:15.555Z,-2.52
2023-01-17T18:32:23.129Z,-2.54
2023-01-17T18:34:30.611Z,-2.51
2023-01-17T18:36:36.819Z,-2.44
2023-01-17T18:38:44.023Z,-2.46
2023-01-17T18:40:48.905Z,-2.45
2023-01-17T18:42:54.525Z,-2.46
2023-01-17T18:44:59.909Z,-2.62
2023-01-17T18:47:05.584Z,-2.68
2023-01-17T18:49:15.475Z,-2.57
2023-01-17T18:51:23.897Z,-2.55
2023-01-17T18:53:29.778Z,-2.49
2023-01-17T18:55:34.729Z,-2.59
2023-01-17T18:57:39.691Z,-2.67
2023-01-17T18:59:45.583Z,-2.74
2023-01-17T19:01:50.927Z,-2.65
2023-01-17T19:03:59.149Z,-2.68
2023-01-17T19:06:08.907Z,-2.63
2023-01-17T19:08:13.858Z,-2.60
2023-01-17T19:10:20.818Z,-2.69
2023-01-17T19:12:26.342Z,-2.78
2023-01-17T19:14:32.053Z,-2.68
2023-01-17T19:16:41.986Z,-2.70
2023-01-17T19:18:47.048Z,-2.66
2023-01-17T19:20:52.235Z,-2.67
2023-01-17T19:23:00.113Z,-2.77
2023-01-17T19:25:05.480Z,-2.74
2023-01-17T19:27:10.987Z,-2.79
2023-01-17T19:29:16.136Z,-2.80
2023-01-17T19:31:24.097Z,-2.82
2023-01-17T19:33:29.393Z,-2.85
2023-01-17T19:35:37.039Z,-2.86
2023-01-17T19:37:42.870Z,-2.81
2023-01-17T19:39:50.354Z,-2.84
2023-01-17T19:41:55.290Z,-2.82
2023-01-17T19:44:03.251Z,-2.77
2023-01-17T19:46:10.726Z,-2.81
2023-01-17T19:48:16.887Z,-2.80
2023-01-17T19:50:22.184Z,-2.76
2023-01-17T19:52:27.163Z,-2.79
2023-01-17T19:54:33.006Z,-2.62
2023-01-17T19:56:40.476Z,-2.50
2023-01-17T19:58:47.216Z,-2.44
2023-01-17T20:00:52.392Z,-2.46
2023-01-17T20:02:57.798Z,-2.49
2023-01-17T20:05:02.732Z,-2.44
2023-01-17T20:07:07.665Z,-2.58
2023-01-17T20:09:12.958Z,-2.61
2023-01-17T20:11:21.206Z,-2.67
2023-01-17T20:13:29.240Z,-2.53
2023-01-17T20:15:34.181Z,-2.47
2023-01-17T20:17:39.118Z,-2.44
2023-01-17T20:19:46.332Z,-2.48
2023-01-17T20:21:55.601Z,-2.45
2023-01-17T20:24:03.318Z,-2.52
2023-01-17T20:26:09.052Z,-2.46
2023-01-17T20:28:13.948Z,-2.57
2023-01-17T20:30:24.558Z,-2.62
2023-01-17T20:32:29.503Z,-2.61
2023-01-17T20:34:34.408Z,-2.65
2023-01-17T20:36:40.102Z,-2.62
2023-01-17T20:38:48.199Z,-2.74
2023-01-17T20:40:57.925Z,-2.68
2023-01-17T20:43:03.220Z,-2.73
2023-01-17T20:45:10.002Z,-2.82
2023-01-17T20:47:18.752Z,-2.77
2023-01-17T20:49:23.773Z,-2.82
2023-01-17T20:51:34.414Z,-2.86
2023-01-17T20:53:41.622Z,-2.91
2023-01-17T20:55:48.438Z,-2.93
2023-01-17T20:57:53.675Z,-2.87
2023-01-17T21:00:00.102Z,-2.89
2023-01-17T21:02:05.168Z,-2.91
2023-01-17T21:04:14.733Z,-2.89
2023-01-17T21:06:21.576Z,-2.91
2023-01-17T21:08:27.783Z,-2.99
2023-01-17T21:10:33.081Z,-2.96
2023-01-17T21:12:38.014Z,-2.91
2023-01-17T21:14:43.680Z,-2.96
2023-01-17T21:16:50.559Z,-3.03
2023-01-17T21:18:55.731Z,-3.10
2023-01-17T21:21:10.438Z,-2.97
2023-01-17T21:23:17.938Z,-3.04
2023-01-17T21:25:23.488Z,-3.02
2023-01-17T21:27:28.757Z,-3.09
2023-01-17T21:29:33.710Z,-3.04
2023-01-17T21:31:40.845Z,-3.01
2023-01-17T21:33:46.446Z,-3.03
2023-01-17T21:35:51.392Z,-3.01
2023-01-17T21:37:59.691Z,-3.07
2023-01-17T21:40:05.413Z,-3.11
2023-01-17T21:42:10.368Z,-3.09
2023-01-17T21:44:19.652Z,-2.95
2023-01-17T21:46:25.245Z,-2.87
2023-01-17T21:48:30.240Z,-2.96
2023-01-17T21:50:35.213Z,-3.00
2023-01-17T21:52:40.407Z,-2.87
2023-01-17T21:55:00.364Z,-2.97
2023-01-17T21:57:20.777Z,-3.06
2023-01-17T21:59:25.659Z,-3.16
2023-01-17T22:01:32.817Z,-3.17
2023-01-17T22:03:38.540Z,-3.15
2023-01-17T22:05:44.035Z,-3.06
2023-01-17T22:08:02.757Z,-3.03
2023-01-17T22:10:12.452Z,-2.87
2023-01-17T22:12:17.399Z,-2.87
2023-01-17T22:14:22.992Z,-2.89
2023-01-17T22:16:29.292Z,-2.88
2023-01-17T22:18:37.129Z,-2.81
2023-01-17T22:20:43.239Z,-2.89
2023-01-17T22:22:48.793Z,-2.89
2023-01-17T22:24:53.702Z,-2.95
2023-01-17T22:27:01.662Z,-2.91
2023-01-17T22:29:08.762Z,-2.97
2023-01-17T22:31:16.772Z,-3.03
2023-01-17T22:33:22.382Z,-3.06
2023-01-17T22:35:28.421Z,-2.96
2023-01-17T22:37:34.811Z,-2.83
2023-01-17T22:39:40.870Z,-2.94
2023-01-17T22:41:45.774Z,-2.96
2023-01-17T22:43:58.475Z,-2.98
2023-01-17T22:46:03.975Z,-3.04
2023-01-17T22:48:10.107Z,-3.03
2023-01-17T22:50:16.100Z,-3.05
2023-01-17T22:52:21.030Z,-3.01
2023-01-17T22:54:26.409Z,-3.01
2023-01-17T22:56:34.313Z,-2.98
2023-01-17T22:58:42.173Z,-2.90
2023-01-17T23:00:51.349Z,-2.94
2023-01-17T23:02:57.013Z,-3.03
2023-01-17T23:05:02.511Z,-2.97
2023-01-17T23:07:07.767Z,-2.98
2023-01-17T23:09:17.227Z,-2.94
2023-01-17T23:11:46.223Z,-2.87
2023-01-17T23:13:51.461Z,-2.83
2023-01-17T23:16:11.465Z,-2.86
2023-01-17T23:18:29.036Z,-2.83
2023-01-17T23:20:33.908Z,-2.80
2023-01-17T23:22:39.573Z,-2.69
2023-01-17T23:24:47.646Z,-2.62
2023-01-17T23:27:04.837Z,-2.68
2023-01-17T23:29:10.156Z,-2.62
2023-01-17T23:31:17.680Z,-2.63
2023-01-17T23:33:22.573Z,-2.68
2023-01-17T23:35:30.084Z,-2.78
2023-01-17T23:37:47.540Z,-2.77
2023-01-17T23:39:53.199Z,-2.75
2023-01-17T23:42:10.544Z,-2.79
2023-01-17T23:44:15.966Z,-2.75
2023-01-17T23:46:24.876Z,-2.79
2023-01-17T23:48:30.875Z,-2.80
2023-01-17T23:50:36.217Z,-2.84
2023-01-17T23:52:41.417Z,-2.82
2023-01-17T23:54:48.550Z,-2.76
2023-01-17T23:56:53.549Z,-2.74
2023-01-17T23:58:58.783Z,-2.72
